Time;durP1;ratioP1;P1;durP2;ratioP2;P2;SDS_P1;SDS_P2;PMS_P1;PMS_P2;Temp;Humidity;BMP_temperature;BMP_pressure;BME280_temperature;BME280_humidity;BME280_pressure;Samples;Min_cycle;Max_cycle;Signal;HPM_P1;HPM_P2
2022/11/13 00:02:06;;;;;;;12.33;10.77;;;;;;;-145.14;100.00;70583.66;5023350;28;20205;-79
2022/11/13 00:04:31;;;;;;;12.30;11.00;;;;;;;-145.14;100.00;70583.66;5025276;28;20680;-79
2022/11/13 00:06:57;;;;;;;14.57;11.47;;;;;;;-145.14;100.00;70583.66;5033262;28;20185;-79
2022/11/13 00:09:22;;;;;;;14.03;11.77;;;;;;;-145.14;100.00;70583.66;5028401;28;20200;-79
2022/11/13 00:11:47;;;;;;;12.03;10.83;;;;;;;-145.14;100.00;70583.66;5026763;28;20187;-79
2022/11/13 00:14:13;;;;;;;14.23;11.30;;;;;;;-145.14;100.00;70583.66;5028448;28;20840;-79
2022/11/13 00:16:38;;;;;;;11.37;10.10;;;;;;;-145.14;100.00;70583.66;5026706;28;20184;-79
2022/11/13 00:19:04;;;;;;;14.37;12.07;;;;;;;-145.14;100.00;70583.66;5023175;28;20278;-79
2022/11/13 00:21:29;;;;;;;12.43;10.50;;;;;;;-145.14;100.00;70583.66;5023739;28;20208;-79
2022/11/13 00:23:55;;;;;;;13.60;9.80;;;;;;;-145.14;100.00;70583.66;5027114;28;20187;-79
2022/11/13 00:26:23;;;;;;;11.70;9.47;;;;;;;-145.14;100.00;70583.66;5022293;28;20200;-79
2022/11/13 00:28:59;;;;;;;11.60;8.93;;;;;;;-145.14;100.00;70583.66;5023647;28;20214;-78
2022/11/13 00:31:25;;;;;;;11.90;10.40;;;;;;;-145.14;100.00;70583.66;5026380;28;20505;-78
2022/11/13 00:33:51;;;;;;;11.63;10.00;;;;;;;-145.14;100.00;70583.66;5021889;28;20455;-79
2022/11/13 00:36:22;;;;;;;12.90;10.40;;;;;;;-145.14;100.00;70583.66;5021147;28;20671;-79
2022/11/13 00:38:48;;;;;;;11.10;9.63;;;;;;;-145.14;100.00;70583.66;5017443;28;20650;-79
2022/11/13 00:41:13;;;;;;;11.13;9.60;;;;;;;-145.14;100.00;70583.66;5025849;28;20466;-80
2022/11/13 00:43:39;;;;;;;11.07;9.63;;;;;;;-145.14;100.00;70583.66;5020622;28;20526;-79
2022/11/13 00:46:06;;;;;;;11.43;10.23;;;;;;;-145.14;100.00;70583.66;5020843;28;20184;-79
2022/11/13 00:48:32;;;;;;;10.93;8.77;;;;;;;-145.14;100.00;70583.66;5017274;28;20458;-79
2022/11/13 00:50:57;;;;;;;11.90;9.90;;;;;;;-145.14;100.00;70583.66;5023015;28;20430;-79
2022/11/13 00:53:23;;;;;;;10.93;8.27;;;;;;;-145.14;100.00;70583.66;5020826;28;20338;-79
2022/11/13 00:55:49;;;;;;;13.20;9.20;;;;;;;-145.14;100.00;70583.66;5018644;28;20684;-79
2022/11/13 00:58:15;;;;;;;9.70;8.37;;;;;;;-145.14;100.00;70583.66;5020003;28;20220;-79
2022/11/13 01:00:42;;;;;;;12.03;10.20;;;;;;;-145.14;100.00;70583.66;5022503;28;20199;-79
2022/11/13 01:03:08;;;;;;;10.33;9.23;;;;;;;-145.14;100.00;70583.66;5020883;28;20443;-79
2022/11/13 01:05:36;;;;;;;11.53;9.90;;;;;;;-145.14;100.00;70583.66;5023823;28;20950;-79
2022/11/13 01:08:02;;;;;;;11.40;9.20;;;;;;;-145.14;100.00;70583.66;5027641;28;20481;-80
2022/11/13 01:10:28;;;;;;;11.10;9.93;;;;;;;-145.14;100.00;70583.66;5025809;28;20440;-80
2022/11/13 01:12:53;;;;;;;10.97;8.83;;;;;;;-145.14;100.00;70583.66;5020618;28;20980;-79
2022/11/13 01:15:19;;;;;;;12.37;8.50;;;;;;;-145.14;100.00;70583.66;5024054;28;20192;-79
2022/11/13 01:17:44;;;;;;;10.23;9.07;;;;;;;-145.14;100.00;70583.66;5019562;28;20212;-79
2022/11/13 01:20:10;;;;;;;10.20;8.10;;;;;;;-145.14;100.00;70583.66;5029556;28;20727;-80
2022/11/13 01:22:35;;;;;;;10.40;8.90;;;;;;;-145.14;100.00;70583.66;5038554;28;20227;-79
2022/11/13 01:25:01;;;;;;;10.53;9.43;;;;;;;-145.14;100.00;70583.66;5030740;28;20689;-79
2022/11/13 01:27:26;;;;;;;13.80;8.70;;;;;;;-145.14;100.00;70583.66;5022930;28;20194;-79
2022/11/13 01:29:52;;;;;;;10.90;8.10;;;;;;;-145.14;100.00;70583.66;5021554;28;20188;-79
2022/11/13 01:32:17;;;;;;;9.60;8.57;;;;;;;-145.14;100.00;70583.66;5026880;28;20185;-78
2022/11/13 01:34:43;;;;;;;9.87;8.37;;;;;;;-145.14;100.00;70583.66;5029554;28;20195;-79
2022/11/13 01:37:08;;;;;;;10.20;8.40;;;;;;;-145.14;100.00;70583.66;5026815;28;20192;-79
2022/11/13 01:39:34;;;;;;;11.13;8.83;;;;;;;-145.14;100.00;70583.66;5029566;28;20219;-79
2022/11/13 01:42:00;;;;;;;9.80;8.33;;;;;;;-145.14;100.00;70583.66;5028969;28;20250;-79
2022/11/13 01:44:55;;;;;;;10.60;8.23;;;;;;;-145.14;100.00;70583.66;5017140;28;20188;-79
2022/11/13 01:47:22;;;;;;;11.80;8.23;;;;;;;-145.14;100.00;70583.66;5027079;28;20427;-79
2022/11/13 01:49:50;;;;;;;10.10;8.90;;;;;;;-145.14;100.00;70583.66;5028724;28;20446;-79
2022/11/13 01:52:20;;;;;;;10.73;8.57;;;;;;;-145.14;100.00;70583.66;5026919;28;20842;-79
2022/11/13 01:54:52;;;;;;;9.80;8.20;;;;;;;-145.14;100.00;70583.66;5030406;28;20438;-79
2022/11/13 01:57:18;;;;;;;10.77;9.00;;;;;;;-145.14;100.00;70583.66;5032328;28;20457;-79
2022/11/13 01:59:52;;;;;;;10.13;7.90;;;;;;;-145.14;100.00;70583.66;5020029;28;20442;-79
2022/11/13 02:02:18;;;;;;;8.37;7.40;;;;;;;-145.14;100.00;70583.66;5028994;28;20845;-79
2022/11/13 02:04:44;;;;;;;10.93;9.73;;;;;;;-145.14;100.00;70583.66;5039793;28;20435;-80
2022/11/13 02:07:13;;;;;;;10.30;8.80;;;;;;;-145.14;100.00;70583.66;5031315;28;20459;-78
2022/11/13 02:09:44;;;;;;;12.63;7.50;;;;;;;-145.14;100.00;70583.66;5031700;28;20501;-80
2022/11/13 02:12:12;;;;;;;9.60;8.60;;;;;;;-145.14;100.00;70583.66;5030645;28;20892;-78
2022/11/13 02:14:42;;;;;;;10.60;8.67;;;;;;;-145.14;100.00;70583.66;5029918;28;21039;-79
2022/11/13 02:17:10;;;;;;;10.97;9.40;;;;;;;-145.14;100.00;70583.66;5030362;28;20983;-78
2022/11/13 02:19:40;;;;;;;16.47;9.30;;;;;;;-145.14;100.00;70583.66;5033234;28;20439;-78
2022/11/13 02:22:27;;;;;;;11.30;8.80;;;;;;;-145.14;100.00;70583.66;5030780;28;21074;-79
2022/11/13 02:24:57;;;;;;;9.83;8.37;;;;;;;-145.14;100.00;70583.66;5030811;28;20591;-78
2022/11/13 02:27:32;;;;;;;12.10;8.93;;;;;;;-145.14;100.00;70583.66;5028969;28;20422;-79
2022/11/13 02:29:57;;;;;;;8.80;7.90;;;;;;;-145.14;100.00;70583.66;5030628;28;20430;-79
2022/11/13 02:32:23;;;;;;;9.80;8.80;;;;;;;-145.14;100.00;70583.66;5030425;28;20445;-79
2022/11/13 02:34:48;;;;;;;10.70;8.47;;;;;;;-145.14;100.00;70583.66;5030387;28;20186;-79
2022/11/13 02:37:14;;;;;;;9.70;8.70;;;;;;;-145.14;100.00;70583.66;5032490;28;20265;-79
2022/11/13 02:39:39;;;;;;;9.40;8.40;;;;;;;-145.14;100.00;70583.66;5029827;28;20195;-79
2022/11/13 02:42:05;;;;;;;10.47;8.90;;;;;;;-145.14;100.00;70583.66;5028932;28;20204;-78
2022/11/13 02:44:30;;;;;;;9.03;8.00;;;;;;;-145.14;100.00;70583.66;5022088;28;20188;-79
2022/11/13 02:46:56;;;;;;;9.20;8.30;;;;;;;-145.14;100.00;70583.66;5030424;28;20311;-79
2022/11/13 02:49:21;;;;;;;9.33;8.33;;;;;;;-145.14;100.00;70583.66;5029166;28;20328;-78
2022/11/13 02:51:47;;;;;;;10.73;8.40;;;;;;;-145.14;100.00;70583.66;5021304;28;20184;-78
2022/11/13 02:54:12;;;;;;;9.20;8.30;;;;;;;-145.14;100.00;70583.66;5029195;28;20202;-79
2022/11/13 02:56:38;;;;;;;10.10;8.80;;;;;;;-145.14;100.00;70583.66;5026748;28;20216;-79
2022/11/13 02:59:03;;;;;;;9.33;8.40;;;;;;;-145.14;100.00;70583.66;5023627;28;20225;-79
2022/11/13 03:01:28;;;;;;;9.77;8.20;;;;;;;-145.14;100.00;70583.66;5026565;28;20760;-79
2022/11/13 03:03:54;;;;;;;8.83;7.70;;;;;;;-145.14;100.00;70583.66;5024656;28;20180;-79
2022/11/13 03:06:19;;;;;;;9.70;7.80;;;;;;;-145.14;100.00;70583.66;5023785;28;21189;-78
2022/11/13 03:08:45;;;;;;;8.13;7.30;;;;;;;-145.14;100.00;70583.66;5028647;28;20208;-79
2022/11/13 03:11:11;;;;;;;8.83;7.90;;;;;;;-145.14;100.00;70583.66;5022722;28;20196;-79
2022/11/13 03:13:37;;;;;;;10.07;8.57;;;;;;;-145.14;100.00;70583.66;5021780;28;20188;-79
2022/11/13 03:16:21;;;;;;;9.63;8.40;;;;;;;-145.14;100.00;70583.66;5014718;28;20447;-79
2022/11/13 03:18:46;;;;;;;11.80;8.50;;;;;;;-145.14;100.00;70583.66;5020341;28;20564;-79
2022/11/13 03:21:13;;;;;;;9.07;7.43;;;;;;;-145.14;100.00;70583.66;5023664;28;20495;-79
2022/11/13 03:23:41;;;;;;;10.73;8.00;;;;;;;-145.14;100.00;70583.66;5021823;28;20195;-79
2022/11/13 03:26:09;;;;;;;9.07;8.10;;;;;;;-145.14;100.00;70583.66;5023246;28;20847;-79
2022/11/13 03:28:36;;;;;;;9.10;8.20;;;;;;;-145.14;100.00;70583.66;5022775;28;20778;-80
2022/11/13 03:31:02;;;;;;;9.87;8.53;;;;;;;-145.14;100.00;70583.66;5021409;28;20440;-79
2022/11/13 03:33:28;;;;;;;8.77;7.87;;;;;;;-145.14;100.00;70583.66;5027629;28;20453;-79
2022/11/13 03:35:54;;;;;;;11.57;8.23;;;;;;;-145.14;100.00;70583.66;5027614;28;20452;-79
2022/11/13 03:38:20;;;;;;;10.67;8.17;;;;;;;-145.14;100.00;70583.66;5022634;28;20223;-79
2022/11/13 03:40:46;;;;;;;10.50;8.33;;;;;;;-145.14;100.00;70583.66;5025627;28;20442;-79
2022/11/13 03:43:11;;;;;;;10.00;8.43;;;;;;;-145.14;100.00;70583.66;5020523;28;20216;-80
2022/11/13 03:45:37;;;;;;;8.07;7.10;;;;;;;-145.14;100.00;70583.66;5020719;28;20192;-80
2022/11/13 03:48:03;;;;;;;11.07;7.97;;;;;;;-145.14;100.00;70583.66;5024173;28;20209;-79
2022/11/13 03:50:28;;;;;;;9.37;7.93;;;;;;;-145.14;100.00;70583.66;5023646;28;20203;-79
2022/11/13 03:52:54;;;;;;;9.10;7.60;;;;;;;-145.14;100.00;70583.66;5030987;28;20176;-78
2022/11/13 03:55:19;;;;;;;8.57;7.77;;;;;;;-145.14;100.00;70583.66;5031144;28;20288;-78
2022/11/13 03:57:48;;;;;;;9.30;7.70;;;;;;;-145.14;100.00;70583.66;5040729;22;20227;-78
2022/11/13 04:00:14;;;;;;;8.80;7.30;;;;;;;-145.14;100.00;70583.66;5035545;28;20207;-77
2022/11/13 04:02:39;;;;;;;9.17;8.20;;;;;;;-145.14;100.00;70583.66;5044011;28;20495;-77
2022/11/13 04:05:06;;;;;;;9.13;7.83;;;;;;;-145.14;100.00;70583.66;5043023;28;20445;-78
2022/11/13 04:07:31;;;;;;;8.87;7.33;;;;;;;-145.14;100.00;70583.66;5036847;28;20199;-77
2022/11/13 04:09:57;;;;;;;8.67;7.77;;;;;;;-145.14;100.00;70583.66;5041099;28;20449;-78
2022/11/13 04:12:22;;;;;;;10.37;7.90;;;;;;;-145.14;100.00;70583.66;5038889;28;20575;-78
2022/11/13 04:14:48;;;;;;;8.00;6.60;;;;;;;-145.14;100.00;70583.66;5040889;28;20203;-77
2022/11/13 04:17:13;;;;;;;8.13;7.17;;;;;;;-145.14;100.00;70583.66;5037727;28;20269;-76
2022/11/13 04:19:38;;;;;;;7.97;7.03;;;;;;;-145.14;100.00;70583.66;5039823;28;20719;-77
2022/11/13 04:22:04;;;;;;;9.17;7.70;;;;;;;-145.14;100.00;70583.66;5040327;28;20798;-77
2022/11/13 04:24:29;;;;;;;8.00;7.13;;;;;;;-145.14;100.00;70583.66;5054516;28;20195;-78
2022/11/13 04:26:55;;;;;;;9.10;8.20;;;;;;;-145.14;100.00;70583.66;5051061;28;20196;-77
2022/11/13 04:29:20;;;;;;;7.93;7.13;;;;;;;-145.14;100.00;70583.66;5037897;28;20210;-77
2022/11/13 04:31:46;;;;;;;8.73;7.40;;;;;;;-145.14;100.00;70583.66;5038362;28;21147;-78
2022/11/13 04:34:11;;;;;;;8.63;7.73;;;;;;;-145.14;100.00;70583.66;5040394;28;20191;-78
2022/11/13 04:36:36;;;;;;;8.77;7.87;;;;;;;-145.14;100.00;70583.66;5035160;28;20192;-78
2022/11/13 04:39:02;;;;;;;7.90;6.60;;;;;;;-145.14;100.00;70583.66;5035698;28;21134;-77
2022/11/13 04:44:11;;;;;;;8.40;7.47;;;;;;;-145.14;100.00;70583.66;5037019;28;20698;-78
2022/11/13 04:46:37;;;;;;;8.47;7.57;;;;;;;-145.14;100.00;70583.66;5036617;28;20548;-77
2022/11/13 04:49:02;;;;;;;9.43;7.57;;;;;;;-145.14;100.00;70583.66;5031011;28;20215;-77
2022/11/13 04:51:28;;;;;;;8.47;7.57;;;;;;;-145.14;100.00;70583.66;5040195;28;20184;-78
2022/11/13 04:53:53;;;;;;;9.20;8.00;;;;;;;-145.14;100.00;70583.66;5037955;28;20188;-77
2022/11/13 04:56:19;;;;;;;8.07;7.23;;;;;;;-145.14;100.00;70583.66;5037409;28;20611;-77
2022/11/13 04:58:44;;;;;;;10.03;7.83;;;;;;;-145.14;100.00;70583.66;5032877;28;20290;-77
2022/11/13 05:01:09;;;;;;;8.10;7.40;;;;;;;-145.14;100.00;70583.66;5037305;28;20579;-78
2022/11/13 05:03:36;;;;;;;8.00;6.87;;;;;;;-145.14;100.00;70583.66;5030563;28;20191;-77
2022/11/13 05:06:08;;;;;;;8.57;7.67;;;;;;;-145.14;100.00;70583.66;5036927;28;20275;-77
2022/11/13 05:08:33;;;;;;;8.50;7.10;;;;;;;-145.14;100.00;70583.66;5036146;28;20491;-77
2022/11/13 05:10:59;;;;;;;8.30;7.30;;;;;;;-145.14;100.00;70583.66;5035006;28;20450;-77
2022/11/13 05:13:25;;;;;;;7.90;7.10;;;;;;;-145.14;100.00;70583.66;5038100;28;20259;-78
2022/11/13 05:15:59;;;;;;;8.50;7.60;;;;;;;-145.14;100.00;70583.66;5035436;28;20442;-78
2022/11/13 05:18:25;;;;;;;8.43;6.90;;;;;;;-145.14;100.00;70583.66;5039762;28;20929;-77
2022/11/13 05:20:50;;;;;;;8.97;8.07;;;;;;;-145.14;100.00;70583.66;5039606;28;20446;-78
2022/11/13 05:23:16;;;;;;;8.70;7.80;;;;;;;-145.14;100.00;70583.66;5040861;28;20439;-77
2022/11/13 05:25:41;;;;;;;8.30;7.13;;;;;;;-145.14;100.00;70583.66;5037080;28;20191;-77
2022/11/13 05:28:07;;;;;;;8.00;7.03;;;;;;;-145.14;100.00;70583.66;5038007;28;20231;-77
2022/11/13 05:30:32;;;;;;;8.00;6.60;;;;;;;-145.14;100.00;70583.66;5036711;28;20179;-78
2022/11/13 05:32:57;;;;;;;7.40;6.50;;;;;;;-145.14;100.00;70583.66;5040261;28;20199;-77
2022/11/13 05:35:23;;;;;;;8.10;6.17;;;;;;;-145.14;100.00;70583.66;5041861;28;20625;-78
2022/11/13 05:37:48;;;;;;;7.77;6.93;;;;;;;-145.14;100.00;70583.66;5039836;28;20204;-78
2022/11/13 05:40:14;;;;;;;7.80;6.97;;;;;;;-145.14;100.00;70583.66;5041115;28;20202;-77
2022/11/13 05:42:39;;;;;;;9.60;7.20;;;;;;;-145.14;100.00;70583.66;5039046;28;20242;-77
2022/11/13 05:45:05;;;;;;;9.47;6.40;;;;;;;-145.14;100.00;70583.66;5052081;28;20207;-77
2022/11/13 05:47:31;;;;;;;8.63;7.33;;;;;;;-145.14;100.00;70583.66;5037823;28;20252;-78
2022/11/13 05:49:57;;;;;;;9.63;7.07;;;;;;;-145.14;100.00;70583.66;5035197;28;20287;-78
2022/11/13 05:52:22;;;;;;;9.37;7.57;;;;;;;-145.14;100.00;70583.66;5037054;28;21168;-78
2022/11/13 05:54:48;;;;;;;8.57;7.10;;;;;;;-145.14;100.00;70583.66;5038416;28;20719;-78
2022/11/13 05:57:13;;;;;;;7.67;6.50;;;;;;;-145.14;100.00;70583.66;5037477;28;20185;-77
2022/11/13 05:59:39;;;;;;;8.03;7.23;;;;;;;-145.14;100.00;70583.66;5038136;28;20597;-78
2022/11/13 06:02:04;;;;;;;7.03;6.30;;;;;;;-145.14;100.00;70583.66;5038958;28;20725;-78
2022/11/13 06:04:29;;;;;;;8.10;7.13;;;;;;;-145.14;100.00;70583.66;5037088;28;20555;-78
2022/11/13 06:06:55;;;;;;;8.60;6.20;;;;;;;-145.14;100.00;70583.66;5038016;28;20725;-77
2022/11/13 06:09:20;;;;;;;6.60;6.00;;;;;;;-145.14;100.00;70583.66;5038152;28;20257;-78
2022/11/13 06:11:46;;;;;;;6.87;5.83;;;;;;;-145.14;100.00;70583.66;5034141;28;20186;-78
2022/11/13 06:14:11;;;;;;;7.20;5.87;;;;;;;-145.14;100.00;70583.66;5038364;28;20183;-77
2022/11/13 06:16:37;;;;;;;7.33;6.43;;;;;;;-145.14;100.00;70583.66;5040856;28;20187;-77
2022/11/13 06:19:06;;;;;;;6.37;5.47;;;;;;;-145.14;100.00;70583.66;5035298;28;20218;-77
2022/11/13 06:21:33;;;;;;;6.23;5.63;;;;;;;-145.14;100.00;70583.66;5040642;28;20965;-77
2022/11/13 06:24:00;;;;;;;6.90;6.07;;;;;;;-145.14;100.00;70583.66;5037819;28;20446;-77
2022/11/13 06:26:31;;;;;;;7.87;6.50;;;;;;;-145.14;100.00;70583.66;5037174;28;20823;-77
2022/11/13 06:28:57;;;;;;;7.20;6.03;;;;;;;-145.14;100.00;70583.66;5032836;28;20454;-77
2022/11/13 06:31:26;;;;;;;6.20;5.60;;;;;;;-145.14;100.00;70583.66;5034484;28;20438;-78
2022/11/13 06:33:52;;;;;;;7.67;6.07;;;;;;;-145.14;100.00;70583.66;5040081;28;20633;-77
2022/11/13 06:36:19;;;;;;;11.23;6.10;;;;;;;-145.14;100.00;70583.66;5036630;28;20449;-78
2022/11/13 06:38:46;;;;;;;9.07;5.80;;;;;;;-145.14;100.00;70583.66;5035412;28;20214;-77
2022/11/13 06:41:14;;;;;;;7.23;5.93;;;;;;;-145.14;100.00;70583.66;5035813;28;20471;-77
2022/11/13 06:43:40;;;;;;;6.53;5.87;;;;;;;-145.14;100.00;70583.66;5040336;28;20426;-78
2022/11/13 06:46:10;;;;;;;7.07;5.70;;;;;;;-145.14;100.00;70583.66;5029647;28;20469;-78
2022/11/13 06:48:36;;;;;;;8.03;6.10;;;;;;;-145.14;100.00;70583.66;5040321;28;20211;-77
2022/11/13 06:51:03;;;;;;;6.67;5.50;;;;;;;-145.14;100.00;70583.66;5038585;28;20434;-78
2022/11/13 06:53:29;;;;;;;7.50;5.80;;;;;;;-145.14;100.00;70583.66;5039961;28;20213;-77
2022/11/13 06:55:55;;;;;;;6.37;5.77;;;;;;;-145.14;100.00;70583.66;5037951;28;20927;-78
2022/11/13 06:58:20;;;;;;;7.87;5.97;;;;;;;-145.14;100.00;70583.66;5038170;28;20553;-78
2022/11/13 07:00:46;;;;;;;7.43;6.20;;;;;;;-145.14;100.00;70583.66;5035109;28;20209;-78
2022/11/13 07:03:17;;;;;;;7.40;5.67;;;;;;;-145.14;100.00;70583.66;5034952;28;20187;-77
2022/11/13 07:05:43;;;;;;;7.23;6.23;;;;;;;-145.14;100.00;70583.66;5039482;28;20442;-78
2022/11/13 07:08:08;;;;;;;12.03;9.90;;;;;;;-145.14;100.00;70583.66;5039778;28;20464;-77
2022/11/13 07:10:34;;;;;;;15.37;12.00;;;;;;;-145.14;100.00;70583.66;5034846;28;20433;-78
2022/11/13 07:12:59;;;;;;;11.33;9.10;;;;;;;-145.14;100.00;70583.66;5038323;28;20232;-78
2022/11/13 07:15:26;;;;;;;7.53;6.77;;;;;;;-145.14;100.00;70583.66;5035757;28;20556;-77
2022/11/13 07:17:51;;;;;;;7.63;6.83;;;;;;;-145.14;100.00;70583.66;5035685;28;20203;-77
2022/11/13 07:20:17;;;;;;;8.50;7.13;;;;;;;-145.14;100.00;70583.66;5035700;28;20578;-77
2022/11/13 07:22:42;;;;;;;8.43;6.60;;;;;;;-145.14;100.00;70583.66;5036724;28;20654;-77
2022/11/13 07:25:08;;;;;;;6.13;5.40;;;;;;;-145.14;100.00;70583.66;5043524;28;20223;-78
2022/11/13 07:27:33;;;;;;;10.50;8.20;;;;;;;-145.14;100.00;70583.66;5038005;28;20635;-77
2022/11/13 07:29:59;;;;;;;13.97;11.83;;;;;;;-145.14;100.00;70583.66;5042606;28;20195;-77
2022/11/13 07:32:24;;;;;;;11.10;7.80;;;;;;;-145.14;100.00;70583.66;5039577;28;20191;-77
2022/11/13 07:34:50;;;;;;;9.27;6.93;;;;;;;-145.14;100.00;70583.66;5040134;28;20194;-78
2022/11/13 07:37:15;;;;;;;8.63;6.20;;;;;;;-145.14;100.00;70583.66;5038323;28;20568;-77
2022/11/13 07:39:41;;;;;;;8.20;7.03;;;;;;;-145.14;100.00;70583.66;5037883;28;20215;-78
2022/11/13 07:42:06;;;;;;;9.30;6.97;;;;;;;-145.14;100.00;70583.66;5044496;28;20214;-77
2022/11/13 07:44:32;;;;;;;6.07;5.47;;;;;;;-145.14;100.00;70583.66;5044201;28;20184;-77
2022/11/13 07:46:57;;;;;;;7.17;6.00;;;;;;;-145.14;100.00;70583.66;5042987;28;20188;-77
2022/11/13 07:49:22;;;;;;;6.87;6.17;;;;;;;-145.14;100.00;70583.66;5045000;28;20211;-77
2022/11/13 07:51:48;;;;;;;11.23;6.70;;;;;;;-145.14;100.00;70583.66;5029954;28;20235;-77
2022/11/13 07:54:13;;;;;;;9.13;6.43;;;;;;;-145.14;100.00;70583.66;5038540;28;20540;-76
2022/11/13 07:56:39;;;;;;;10.30;6.83;;;;;;;-145.14;100.00;70583.66;5036192;28;20276;-76
2022/11/13 07:59:04;;;;;;;10.20;6.43;;;;;;;-145.14;100.00;70583.66;5032463;28;20216;-76
2022/11/13 08:01:29;;;;;;;8.00;7.20;;;;;;;-145.14;100.00;70583.66;5048634;28;20215;-76
2022/11/13 08:03:55;;;;;;;10.13;7.80;;;;;;;-145.14;100.00;70583.66;5037258;28;20187;-77
2022/11/13 08:06:22;;;;;;;8.40;7.50;;;;;;;-145.14;100.00;70583.66;5031187;28;20828;-77
2022/11/13 08:08:48;;;;;;;8.37;7.53;;;;;;;-145.14;100.00;70583.66;5020719;28;20689;-81
2022/11/13 08:11:14;;;;;;;10.30;7.90;;;;;;;-145.14;100.00;70583.66;5037491;28;20525;-76
2022/11/13 08:13:39;;;;;;;11.20;8.10;;;;;;;-145.14;100.00;70583.66;5037183;28;20495;-78
2022/11/13 08:16:05;;;;;;;9.00;7.97;;;;;;;-145.14;100.00;70583.66;5036598;28;20532;-78
2022/11/13 08:18:31;;;;;;;9.23;7.80;;;;;;;-145.14;100.00;70583.66;5032935;28;20217;-76
2022/11/13 08:20:59;;;;;;;8.67;7.23;;;;;;;-145.14;100.00;70583.66;5038357;28;20191;-77
2022/11/13 08:23:24;;;;;;;7.67;6.87;;;;;;;-145.14;100.00;70583.66;5034778;28;20247;-77
2022/11/13 08:25:50;;;;;;;8.63;7.50;;;;;;;-145.14;100.00;70583.66;5036344;28;20441;-76
2022/11/13 08:28:15;;;;;;;9.10;7.90;;;;;;;-145.14;100.00;70583.66;5032846;28;20203;-76
2022/11/13 08:30:43;;;;;;;11.40;7.50;;;;;;;-145.14;100.00;70583.66;5029333;28;20640;-77
2022/11/13 08:33:08;;;;;;;11.00;7.10;;;;;;;-145.14;100.00;70583.66;5036971;28;20184;-76
2022/11/13 08:35:34;;;;;;;9.30;6.90;;;;;;;-145.14;100.00;70583.66;5035271;28;20454;-78
2022/11/13 08:38:07;;;;;;;7.20;6.27;;;;;;;-145.14;100.00;70583.66;5033340;28;20216;-78
2022/11/13 08:40:34;;;;;;;8.63;6.73;;;;;;;-145.14;100.00;70583.66;5031229;28;20184;-80
2022/11/13 08:43:02;;;;;;;7.97;7.17;;;;;;;-145.14;100.00;70583.66;5033335;28;20564;-76
2022/11/13 08:45:29;;;;;;;9.20;7.50;;;;;;;-145.14;100.00;70583.66;5041758;28;20953;-77
2022/11/13 08:48:04;;;;;;;10.10;7.10;;;;;;;-145.14;100.00;70583.66;5031688;28;20472;-77
2022/11/13 08:50:31;;;;;;;7.63;6.50;;;;;;;-145.14;100.00;70583.66;5040849;28;20791;-74
2022/11/13 08:52:58;;;;;;;7.73;6.93;;;;;;;-145.14;100.00;70583.66;5034842;28;20535;-77
2022/11/13 08:55:24;;;;;;;7.90;7.10;;;;;;;-145.14;100.00;70583.66;5036313;28;20443;-83
2022/11/13 08:57:50;;;;;;;8.80;7.27;;;;;;;-145.14;100.00;70583.66;5043239;28;21215;-79
2022/11/13 09:00:17;;;;;;;11.30;8.30;;;;;;;-145.14;100.00;70583.66;5033377;28;20470;-78
2022/11/13 09:02:43;;;;;;;9.20;8.17;;;;;;;-145.14;100.00;70583.66;5039296;28;20528;-79
2022/11/13 09:05:09;;;;;;;9.80;8.20;;;;;;;-145.14;100.00;70583.66;5032822;28;20449;-78
2022/11/13 09:07:34;;;;;;;10.50;8.43;;;;;;;-145.14;100.00;70583.66;5031977;28;20452;-77
2022/11/13 09:10:00;;;;;;;7.93;7.13;;;;;;;-145.14;100.00;70583.66;5036916;28;20450;-78
2022/11/13 09:12:25;;;;;;;8.80;7.53;;;;;;;-145.14;100.00;70583.66;5035837;28;20288;-78
2022/11/13 09:14:51;;;;;;;10.90;7.90;;;;;;;-145.14;100.00;70583.66;5028934;28;20640;-82
2022/11/13 09:17:17;;;;;;;32.87;15.63;;;;;;;-145.14;100.00;70583.66;5043112;28;20318;-69
2022/11/13 09:19:42;;;;;;;16.67;12.37;;;;;;;-145.14;100.00;70583.66;5033867;28;20296;-70
2022/11/13 09:22:09;;;;;;;10.80;9.40;;;;;;;-145.14;100.00;70583.66;5026446;28;20857;-70
2022/11/13 09:24:35;;;;;;;11.17;9.47;;;;;;;-145.14;100.00;70583.66;5031663;28;20207;-68
2022/11/13 09:27:00;;;;;;;12.63;8.93;;;;;;;-145.14;100.00;70583.66;5022174;28;20446;-67
2022/11/13 09:29:27;;;;;;;11.73;8.50;;;;;;;-145.14;100.00;70583.66;5022057;28;21215;-68
2022/11/13 09:31:54;;;;;;;11.37;8.50;;;;;;;-145.14;100.00;70583.66;5023840;28;20192;-67
2022/11/13 09:34:20;;;;;;;10.90;8.73;;;;;;;-145.14;100.00;70583.66;5033541;28;20441;-69
2022/11/13 09:36:45;;;;;;;9.37;8.40;;;;;;;-145.14;100.00;70583.66;5031591;28;20473;-69
2022/11/13 09:39:10;;;;;;;13.13;8.80;;;;;;;-145.14;100.00;70583.66;5029895;28;20457;-69
2022/11/13 09:41:40;;;;;;;9.47;8.10;;;;;;;-145.14;100.00;70583.66;5033928;28;20282;-69
2022/11/13 09:44:22;;;;;;;11.10;9.10;;;;;;;-145.14;100.00;70583.66;5038689;28;20196;-69
2022/11/13 09:47:03;;;;;;;14.27;10.20;;;;;;;-145.14;100.00;70583.66;5036983;28;20449;-70
2022/11/13 09:49:36;;;;;;;10.67;8.70;;;;;;;-145.14;100.00;70583.66;5048758;28;20843;-70
2022/11/13 09:52:10;;;;;;;9.80;8.60;;;;;;;-145.14;100.00;70583.66;5035779;28;20995;-70
2022/11/13 09:54:36;;;;;;;10.83;8.23;;;;;;;-145.14;100.00;70583.66;5035772;28;20461;-70
2022/11/13 09:57:20;;;;;;;9.60;8.60;;;;;;;-145.14;100.00;70583.66;5041691;28;20879;-70
2022/11/13 10:00:11;;;;;;;11.70;8.90;;;;;;;-145.14;100.00;70583.66;5055846;22;21021;-71
2022/11/13 10:02:54;;;;;;;11.30;8.33;;;;;;;-145.14;100.00;70583.66;5039943;28;20474;-71
2022/11/13 10:05:28;;;;;;;11.63;8.57;;;;;;;-145.14;100.00;70583.66;5036328;28;20444;-71
2022/11/13 10:08:20;;;;;;;11.40;9.20;;;;;;;-145.14;100.00;70583.66;5010163;28;20778;-70
2022/11/13 10:10:55;;;;;;;9.40;8.10;;;;;;;-145.14;100.00;70583.66;5038140;28;20805;-72
2022/11/13 10:13:30;;;;;;;10.80;9.10;;;;;;;-145.14;100.00;70583.66;5044018;28;20535;-72
2022/11/13 10:16:08;;;;;;;12.13;8.73;;;;;;;-145.14;100.00;70583.66;5034681;28;20429;-71
2022/11/13 10:18:37;;;;;;;12.07;9.10;;;;;;;-145.14;100.00;70583.66;5039849;28;20492;-72
2022/11/13 10:21:20;;;;;;;9.80;8.57;;;;;;;-145.14;100.00;70583.66;5025195;28;20473;-72
2022/11/13 10:23:53;;;;;;;10.90;8.43;;;;;;;-145.14;100.00;70583.66;5036926;28;20472;-73
2022/11/13 10:26:21;;;;;;;11.67;8.50;;;;;;;-145.14;100.00;70583.66;5042920;28;20469;-71
2022/11/13 10:29:09;;;;;;;10.37;8.80;;;;;;;-145.14;100.00;70583.66;5041067;28;20470;-71
2022/11/13 10:31:47;;;;;;;10.00;9.00;;;;;;;-145.14;100.00;70583.66;5036599;28;20525;-72
2022/11/13 10:34:14;;;;;;;11.40;9.17;;;;;;;-145.14;100.00;70583.66;5037125;28;20446;-70
2022/11/13 10:37:17;;;;;;;13.67;10.40;;;;;;;-145.14;100.00;70583.66;5023764;28;20439;-73
2022/11/13 10:39:44;;;;;;;12.30;9.47;;;;;;;-145.14;100.00;70583.66;5034081;28;20458;-73
2022/11/13 10:42:27;;;;;;;9.60;8.60;;;;;;;-145.14;100.00;70583.66;5036059;28;20564;-73
2022/11/13 10:44:58;;;;;;;10.37;9.03;;;;;;;-145.14;100.00;70583.66;5047236;28;20433;-74
2022/11/13 10:47:27;;;;;;;8.80;7.90;;;;;;;-145.14;100.00;70583.66;5034668;28;20437;-73
2022/11/13 10:49:55;;;;;;;10.40;8.77;;;;;;;-145.14;100.00;70583.66;5027341;28;20462;-73
2022/11/13 10:52:23;;;;;;;8.90;7.73;;;;;;;-145.14;100.00;70583.66;5031903;28;20528;-73
2022/11/13 10:54:49;;;;;;;9.90;8.47;;;;;;;-145.14;100.00;70583.66;5033443;28;20473;-73
2022/11/13 10:57:26;;;;;;;9.60;8.07;;;;;;;-145.14;100.00;70583.66;5042084;28;20809;-73
2022/11/13 10:59:52;;;;;;;12.03;8.23;;;;;;;-145.14;100.00;70583.66;5045508;28;20458;-73
2022/11/13 11:02:20;;;;;;;9.87;7.50;;;;;;;-145.14;100.00;70583.66;5042576;28;20474;-73
2022/11/13 11:04:47;;;;;;;9.80;8.80;;;;;;;-145.14;100.00;70583.66;5041628;28;20266;-73
2022/11/13 11:07:22;;;;;;;9.30;7.43;;;;;;;-145.14;100.00;70583.66;5043230;28;21230;-73
2022/11/13 11:09:49;;;;;;;9.20;8.23;;;;;;;-145.14;100.00;70583.66;5042177;28;21009;-73